Date,TemperatureHighF,TemperatureAvgF,TemperatureLowF,DewpointHighF,DewpointAvgF,DewpointLowF,HumidityHigh,HumidityAvg,HumidityLow,PressureMaxIn,PressureMinIn,WindSpeedMaxMPH,WindSpeedAvgMPH,GustSpeedMaxMPH,PrecipitationSumIn
2013-2-1,79.0,73.9,71.0,-99.9,-99.9,-99.9,0,0,100,30.13,30.04,16,6,27,0.00
2013-2-2,79.0,74.2,72.0,-99.9,-99.9,-99.9,0,0,100,30.17,30.07,12,6,24,0.00
2013-2-3,76.0,72.0,67.0,-99.9,-99.9,-99.9,0,0,100,30.19,30.09,13,-9,22,0.00
2013-2-4,75.0,72.8,71.0,-99.9,-99.9,-99.9,0,0,100,30.16,30.05,15,7,28,0.00
2013-2-5,78.0,73.1,69.0,-99.9,-99.9,-99.9,0,0,100,30.11,30.03,14,6,23,0.00
2013-2-6,77.0,73.0,70.0,-99.9,-99.9,-99.9,0,0,100,30.11,30.03,11,-9,18,0.00
2013-2-7,79.0,74.3,70.0,-99.9,-99.9,-99.9,0,0,100,30.14,30.04,11,-3,19,0.00
2013-2-8,80.0,74.7,70.0,-99.9,-99.9,-99.9,0,0,100,30.14,30.05,9,-17,16,0.00
2013-2-9,79.0,73.7,70.0,-99.9,-99.9,-99.9,0,0,100,30.17,30.06,14,-37,23,0.00
2013-2-10,78.0,74.2,72.0,-99.9,-99.9,-99.9,0,0,100,30.22,30.09,12,6,24,0.00
2013-2-11,75.0,72.2,70.0,-99.9,-99.9,-99.9,0,0,100,30.23,30.13,12,5,23,0.00
2013-2-12,74.0,71.5,69.0,-99.9,-99.9,-99.9,0,0,100,30.22,30.11,10,6,19,0.00
2013-2-13,74.0,71.4,69.0,-99.9,-99.9,-99.9,0,0,100,30.17,30.03,13,-2,21,0.00
2013-2-14,75.0,72.0,70.0,-99.9,-99.9,-99.9,0,0,100,30.12,30.02,11,5,17,0.00
2013-2-15,79.0,74.0,70.0,-99.9,-99.9,-99.9,0,0,100,30.13,30.02,13,6,21,0.00
2013-2-16,77.0,73.8,71.0,-99.9,-99.9,-99.9,0,0,100,30.15,30.04,14,7,28,0.00
2013-2-17,77.0,73.7,70.0,-99.9,-99.9,-99.9,0,0,100,30.19,30.07,16,7,28,0.00
2013-2-18,77.0,73.3,71.0,-99.9,-99.9,-99.9,0,0,100,30.17,30.04,16,9,31,0.00
2013-2-19,75.0,71.6,68.0,-99.9,-99.9,-99.9,0,0,100,30.17,30.06,13,7,31,0.00
2013-2-20,77.0,73.2,71.0,-99.9,-99.9,-99.9,0,0,100,30.16,30.08,12,6,23,0.00
2013-2-21,76.0,72.0,69.0,-99.9,-99.9,-99.9,0,0,100,30.16,30.09,14,6,30,0.00
2013-2-22,76.0,72.6,70.0,-99.9,-99.9,-99.9,0,0,100,30.15,30.06,12,6,20,0.00
2013-2-23,77.0,73.2,70.0,-99.9,-99.9,-99.9,0,0,100,30.14,30.06,12,6,22,0.00
2013-2-24,77.0,73.0,70.0,-99.9,-99.9,-99.9,0,0,100,30.15,30.04,14,6,23,0.00
2013-2-25,77.0,73.2,71.0,-99.9,-99.9,-99.9,0,0,100,30.17,30.06,15,6,23,0.00
2013-2-26,77.0,73.5,70.0,-99.9,-99.9,-99.9,0,0,100,30.19,30.11,13,6,24,0.00
2013-2-27,77.0,73.7,71.0,-99.9,-99.9,-99.9,0,0,100,30.21,30.11,13,8,28,0.00
2013-2-28,77.0,73.6,71.0,-99.9,-99.9,-99.9,0,0,100,30.22,30.13,15,8,26,0.00